Absecon Highlands, New Jersey
Current Conditions -  °F | °C
As of 8:54 PM on Saturday 22 Nov 2014 (Local Time) from KACY Reporting Station
Overcast Overcast  
Wind Chill:   Ceiling: 11000
Heat Index:   Visibility: 10mi
Dew Point: -4°   Wind: 8mph
Humidity: 49%   Direction: 220°SW
Pressure: 30.3"   Gusts: NA
Location:  39.4315°N, 74.5003°W
Report Text: KACY 230154Z 22007KT 10SM OVC110 06/M04 A3030 RMK AO2 SLP260 T00561044
Loading
Personal Weather Stations






























Interactive Weather Map New forecast layout! Learn more

10-Day Weather Forecast

Advertisements
Track Severe Weather on mobile